createdAt,value
2023-06-29T00:00:38.009Z,100349.00
2023-06-29T00:03:07.054Z,100348.00
2023-06-29T00:05:36.887Z,100335.00
2023-06-29T00:08:06.140Z,100336.00
2023-06-29T00:10:35.193Z,100342.00
2023-06-29T00:13:03.945Z,100322.00
2023-06-29T00:15:32.725Z,100324.00
2023-06-29T00:18:10.126Z,100324.00
2023-06-29T00:20:39.136Z,100323.00
2023-06-29T00:23:08.232Z,100315.00
2023-06-29T00:25:39.038Z,100305.00
2023-06-29T00:28:07.778Z,100311.00
2023-06-29T00:30:36.765Z,100311.00
2023-06-29T00:33:06.986Z,100316.00
2023-06-29T00:35:37.609Z,100318.00
2023-06-29T00:38:06.437Z,100331.00
2023-06-29T00:40:35.233Z,100332.00
2023-06-29T00:43:04.318Z,100330.00
2023-06-29T00:45:33.487Z,100325.00
2023-06-29T00:48:02.926Z,100326.00
2023-06-29T00:50:36.203Z,100323.00
2023-06-29T00:53:05.246Z,100326.00
2023-06-29T00:55:34.152Z,100330.00
2023-06-29T00:58:02.984Z,100323.00
2023-06-29T01:00:31.804Z,100335.00
2023-06-29T01:03:00.818Z,100323.00
2023-06-29T01:05:35.647Z,100321.00
2023-06-29T01:08:13.683Z,100320.00
2023-06-29T01:10:45.390Z,100326.00
2023-06-29T01:13:18.554Z,100318.00
2023-06-29T01:15:51.926Z,100321.00
2023-06-29T01:18:25.223Z,100319.00
2023-06-29T01:20:55.697Z,100321.00
2023-06-29T01:23:30.403Z,100325.00
2023-06-29T01:26:00.647Z,100325.00
2023-06-29T01:28:33.774Z,100321.00
2023-06-29T01:31:04.077Z,100316.00
2023-06-29T01:33:34.695Z,100325.00
2023-06-29T01:36:13.603Z,100326.00
2023-06-29T01:38:50.243Z,100331.00
2023-06-29T01:41:23.006Z,100332.00
2023-06-29T01:43:54.034Z,100317.00
2023-06-29T01:47:13.183Z,100319.00
2023-06-29T01:49:42.317Z,100326.00
2023-06-29T01:52:12.036Z,100326.00
2023-06-29T01:54:40.982Z,100325.00
2023-06-29T01:57:11.594Z,100325.00
2023-06-29T01:59:40.579Z,100316.00
2023-06-29T02:02:09.810Z,100314.00
2023-06-29T02:04:38.567Z,100319.00
2023-06-29T02:07:09.985Z,100314.00
2023-06-29T02:09:38.988Z,100311.00
2023-06-29T02:12:11.193Z,100315.00
2023-06-29T02:14:40.042Z,100304.00
2023-06-29T02:17:09.361Z,100318.00
2023-06-29T02:19:38.442Z,100315.00
2023-06-29T02:22:07.408Z,100307.00
2023-06-29T02:24:36.642Z,100299.00
2023-06-29T02:27:10.964Z,100303.00
2023-06-29T02:29:41.293Z,100299.00
2023-06-29T02:32:10.645Z,100293.00
2023-06-29T02:34:40.220Z,100299.00
2023-06-29T02:37:09.410Z,100295.00
2023-06-29T02:39:38.927Z,100305.00
2023-06-29T02:42:08.066Z,100298.00
2023-06-29T02:44:36.907Z,100294.00
2023-06-29T02:47:09.495Z,100297.00
2023-06-29T02:49:38.461Z,100296.00
2023-06-29T02:52:08.508Z,100303.00
2023-06-29T02:54:39.602Z,100299.00
2023-06-29T02:57:10.218Z,100300.00
2023-06-29T02:59:39.117Z,100299.00
2023-06-29T03:02:11.819Z,100294.00
2023-06-29T03:04:40.697Z,100300.00
2023-06-29T03:07:09.571Z,100306.00
2023-06-29T03:09:41.268Z,100305.00
2023-06-29T03:12:13.469Z,100310.00
2023-06-29T03:14:42.426Z,100309.00
2023-06-29T03:17:14.758Z,100315.00
2023-06-29T03:19:43.862Z,100316.00
2023-06-29T03:22:15.706Z,100323.00
2023-06-29T03:24:44.535Z,100314.00
2023-06-29T03:27:13.556Z,100312.00
2023-06-29T03:29:42.330Z,100309.00
2023-06-29T03:32:13.064Z,100312.00
2023-06-29T03:34:44.392Z,100317.00
2023-06-29T03:37:13.190Z,100310.00
2023-06-29T03:39:41.964Z,100309.00
2023-06-29T03:42:10.874Z,100302.00
2023-06-29T03:44:40.799Z,100302.00
2023-06-29T03:47:09.895Z,100296.00
2023-06-29T03:49:40.310Z,100296.00
2023-06-29T03:52:10.278Z,100289.00
2023-06-29T03:54:39.230Z,100291.00
2023-06-29T03:57:08.367Z,100288.00
2023-06-29T03:59:37.039Z,100284.00
2023-06-29T04:02:06.520Z,100287.00
2023-06-29T04:04:35.290Z,100281.00
2023-06-29T04:07:05.989Z,100291.00
2023-06-29T04:09:35.226Z,100289.00
2023-06-29T04:12:04.028Z,100283.00
2023-06-29T04:14:32.862Z,100282.00
2023-06-29T04:17:01.644Z,100286.00
2023-06-29T04:19:30.386Z,100271.00
2023-06-29T04:21:59.147Z,100281.00
2023-06-29T04:24:29.344Z,100273.00
2023-06-29T04:26:58.104Z,100277.00
2023-06-29T04:29:26.952Z,100274.00
2023-06-29T04:31:56.132Z,100275.00
2023-06-29T04:34:24.866Z,100267.00
2023-06-29T04:36:57.654Z,100271.00
2023-06-29T04:39:26.730Z,100272.00
2023-06-29T04:42:03.470Z,100269.00
2023-06-29T04:44:33.547Z,100262.00
2023-06-29T04:47:03.016Z,100267.00
2023-06-29T04:49:38.138Z,100267.00
2023-06-29T04:52:11.299Z,100270.00
2023-06-29T04:54:40.121Z,100264.00
2023-06-29T04:57:12.648Z,100262.00
2023-06-29T04:59:41.398Z,100265.00
2023-06-29T05:02:10.113Z,100265.00
2023-06-29T05:04:39.622Z,100267.00
2023-06-29T05:07:08.527Z,100261.00
2023-06-29T05:09:39.829Z,100264.00
2023-06-29T05:12:12.010Z,100260.00
2023-06-29T05:14:43.111Z,100258.00
2023-06-29T05:17:11.968Z,100260.00
2023-06-29T05:19:41.145Z,100263.00
2023-06-29T05:22:09.935Z,100261.00
2023-06-29T05:24:39.378Z,100265.00
2023-06-29T05:27:11.035Z,100261.00
2023-06-29T05:29:39.856Z,100248.00
2023-06-29T05:32:09.568Z,100259.00
2023-06-29T05:34:38.305Z,100249.00
2023-06-29T05:37:07.365Z,100250.00
2023-06-29T05:39:36.167Z,100250.00
2023-06-29T05:42:05.372Z,100248.00
2023-06-29T05:44:35.512Z,100253.00
2023-06-29T05:47:04.283Z,100248.00
2023-06-29T05:49:33.031Z,100250.00
2023-06-29T05:52:01.792Z,100244.00
2023-06-29T05:54:30.653Z,100245.00
2023-06-29T05:56:59.545Z,100251.00
2023-06-29T05:59:28.526Z,100239.00
2023-06-29T06:01:58.769Z,100237.00
2023-06-29T06:04:27.624Z,100231.00
2023-06-29T06:06:56.519Z,100235.00
2023-06-29T06:09:25.392Z,100233.00
2023-06-29T06:11:56.023Z,100225.00
2023-06-29T06:14:24.735Z,100227.00
2023-06-29T06:16:53.419Z,100219.00
2023-06-29T06:19:23.595Z,100231.00
2023-06-29T06:21:52.379Z,100226.00
2023-06-29T06:24:21.245Z,100220.00
2023-06-29T06:26:50.294Z,100219.00
2023-06-29T06:29:19.083Z,100220.00
2023-06-29T06:31:48.032Z,100211.00
2023-06-29T06:34:16.865Z,100212.00
2023-06-29T06:36:49.291Z,100213.00
2023-06-29T06:39:18.235Z,100220.00
2023-06-29T06:41:47.117Z,100216.00
2023-06-29T06:44:17.776Z,100224.00
2023-06-29T06:46:46.650Z,100219.00
2023-06-29T06:49:15.565Z,100225.00
2023-06-29T06:51:44.423Z,100214.00
2023-06-29T06:54:14.547Z,100216.00
2023-06-29T06:56:43.267Z,100211.00
2023-06-29T06:59:13.487Z,100209.00
2023-06-29T07:01:45.386Z,100215.00
2023-06-29T07:04:14.301Z,100211.00
2023-06-29T07:06:43.311Z,100216.00
2023-06-29T07:09:14.457Z,100209.00
2023-06-29T07:11:43.560Z,100212.00
2023-06-29T07:14:12.472Z,100207.00
2023-06-29T07:16:41.651Z,100199.00
2023-06-29T07:24:06.063Z,100212.00
2023-06-29T07:24:36.280Z,100215.00
2023-06-29T07:27:05.515Z,100215.00
2023-06-29T07:29:34.863Z,100208.00
2023-06-29T07:32:03.872Z,100210.00
2023-06-29T07:34:33.940Z,100206.00
2023-06-29T07:37:03.210Z,100209.00
2023-06-29T07:39:35.586Z,100198.00
2023-06-29T07:42:08.039Z,100204.00
2023-06-29T07:44:36.805Z,100201.00
2023-06-29T07:47:06.598Z,100195.00
2023-06-29T07:49:35.457Z,100195.00
2023-06-29T07:52:05.304Z,100198.00
2023-06-29T07:54:34.499Z,100205.00
2023-06-29T07:59:36.557Z,100186.00
2023-06-29T08:02:06.186Z,100192.00
2023-06-29T08:07:10.703Z,100180.00
2023-06-29T08:09:40.356Z,100180.00
2023-06-29T08:12:10.334Z,100191.00
2023-06-29T08:14:41.702Z,100183.00
2023-06-29T08:17:10.449Z,100190.00
2023-06-29T08:19:39.196Z,100189.00
2023-06-29T08:22:08.209Z,100188.00
2023-06-29T08:24:37.116Z,100187.00
2023-06-29T08:27:06.198Z,100182.00
2023-06-29T08:29:34.987Z,100189.00
2023-06-29T08:32:07.352Z,100183.00
2023-06-29T08:34:36.547Z,100182.00
2023-06-29T08:37:06.898Z,100180.00
2023-06-29T08:39:40.599Z,100176.00
2023-06-29T08:42:09.635Z,100184.00
2023-06-29T08:44:39.006Z,100175.00
2023-06-29T08:47:14.739Z,100180.00
2023-06-29T08:49:44.699Z,100178.00
2023-06-29T08:52:19.783Z,100176.00
2023-06-29T08:54:50.788Z,100171.00
2023-06-29T08:57:19.859Z,100170.00
2023-06-29T08:59:50.903Z,100166.00
2023-06-29T09:02:24.146Z,100163.00
2023-06-29T09:05:13.914Z,100167.00
2023-06-29T09:07:43.641Z,100176.00
2023-06-29T09:10:14.748Z,100169.00
2023-06-29T09:12:44.969Z,100166.00
2023-06-29T09:15:18.343Z,100161.00
2023-06-29T09:17:55.975Z,100173.00
2023-06-29T09:20:29.345Z,100154.00
2023-06-29T09:22:59.402Z,100157.00
2023-06-29T09:25:38.396Z,100166.00
2023-06-29T09:28:10.268Z,100159.00
2023-06-29T09:30:42.057Z,100154.00
2023-06-29T09:33:16.772Z,100165.00
2023-06-29T09:35:49.470Z,100149.00
2023-06-29T09:38:18.878Z,100158.00
2023-06-29T09:40:52.772Z,100153.00
2023-06-29T09:43:24.193Z,100157.00
2023-06-29T09:45:54.864Z,100157.00
2023-06-29T09:51:01.415Z,100150.00
2023-06-29T09:53:33.183Z,100147.00
2023-06-29T09:56:04.629Z,100145.00
2023-06-29T09:58:33.682Z,100143.00
2023-06-29T10:01:02.798Z,100146.00
2023-06-29T10:03:48.061Z,100120.00
2023-06-29T10:06:24.523Z,100133.00
2023-06-29T10:09:06.003Z,100126.00
2023-06-29T10:11:38.831Z,100119.00
2023-06-29T10:14:11.740Z,100118.00
2023-06-29T10:16:47.825Z,100118.00
2023-06-29T10:19:22.914Z,100114.00
2023-06-29T10:21:59.852Z,100119.00
2023-06-29T10:24:34.668Z,100115.00
2023-06-29T10:27:05.824Z,100111.00
2023-06-29T10:29:45.580Z,100103.00
2023-06-29T10:32:33.597Z,100080.00
2023-06-29T10:35:10.596Z,100078.00
2023-06-29T10:37:45.545Z,100088.00
2023-06-29T10:40:18.550Z,100085.00
2023-06-29T10:42:57.223Z,100091.00
2023-06-29T10:45:36.085Z,100083.00
2023-06-29T10:48:25.457Z,100082.00
2023-06-29T10:51:03.017Z,100070.00
2023-06-29T10:53:31.789Z,100073.00
2023-06-29T10:56:00.643Z,100055.00
2023-06-29T10:58:38.154Z,100062.00
2023-06-29T11:01:08.593Z,100064.00
2023-06-29T11:03:37.931Z,100055.00
2023-06-29T11:06:08.533Z,100059.00
2023-06-29T11:08:37.219Z,100084.00
2023-06-29T11:11:15.948Z,100049.00
2023-06-29T11:13:47.897Z,100060.00
2023-06-29T11:16:18.688Z,100061.00
2023-06-29T11:18:52.400Z,100040.00
2023-06-29T11:21:27.086Z,100046.00
2023-06-29T11:23:58.607Z,100037.00
2023-06-29T11:26:29.344Z,100041.00
2023-06-29T11:29:01.068Z,100043.00
2023-06-29T11:31:32.827Z,100059.00
2023-06-29T11:34:03.693Z,100032.00
2023-06-29T11:36:38.244Z,100055.00
2023-06-29T11:39:10.999Z,100038.00
2023-06-29T11:41:43.029Z,100046.00
2023-06-29T11:44:15.248Z,100048.00
2023-06-29T11:46:50.261Z,100049.00
2023-06-29T11:49:25.372Z,100044.00
2023-06-29T11:51:57.799Z,100040.00
2023-06-29T11:54:27.985Z,100040.00
2023-06-29T11:56:56.842Z,100048.00
2023-06-29T11:59:26.581Z,100039.00
2023-06-29T12:01:55.411Z,100047.00
2023-06-29T12:07:10.893Z,100045.00
2023-06-29T12:09:41.404Z,100041.00
2023-06-29T12:12:12.568Z,100036.00
2023-06-29T12:14:41.391Z,100026.00
2023-06-29T12:20:09.812Z,100021.00
2023-06-29T12:22:41.258Z,100034.00
2023-06-29T12:25:13.838Z,100026.00
2023-06-29T12:27:44.176Z,100016.00
2023-06-29T12:30:16.149Z,100023.00
2023-06-29T12:32:46.782Z,100011.00
2023-06-29T12:35:20.258Z,100006.00
2023-06-29T12:37:50.798Z,100014.00
2023-06-29T12:40:19.571Z,100019.00
2023-06-29T12:42:48.252Z,100006.00
2023-06-29T12:45:17.038Z,100017.00
2023-06-29T12:47:46.673Z,100003.00
2023-06-29T12:50:15.832Z,100002.00
2023-06-29T12:52:44.942Z,99997.00
2023-06-29T12:55:16.503Z,99996.00
2023-06-29T12:57:45.804Z,100000.00
2023-06-29T13:00:19.617Z,99999.00
2023-06-29T13:02:49.189Z,100005.00
2023-06-29T13:05:18.126Z,100000.00
2023-06-29T13:07:47.116Z,99996.00
2023-06-29T13:10:17.356Z,99994.00
2023-06-29T13:12:46.194Z,100003.00
2023-06-29T13:15:14.940Z,100015.00
2023-06-29T13:17:44.544Z,100014.00
2023-06-29T13:20:15.913Z,100017.00
2023-06-29T13:22:45.071Z,100016.00
2023-06-29T13:25:14.556Z,100017.00
2023-06-29T13:27:45.614Z,100034.00
2023-06-29T13:30:15.836Z,100038.00
2023-06-29T13:32:44.602Z,100034.00
2023-06-29T13:35:13.374Z,100043.00
2023-06-29T13:37:42.098Z,100041.00
2023-06-29T13:40:12.749Z,100043.00
2023-06-29T13:42:42.868Z,100043.00
2023-06-29T13:45:13.698Z,100042.00
2023-06-29T13:47:45.007Z,100047.00
2023-06-29T13:50:14.270Z,100037.00
2023-06-29T13:52:44.486Z,100055.00
2023-06-29T13:55:13.241Z,100046.00
2023-06-29T13:57:42.142Z,100051.00
2023-06-29T14:00:14.480Z,100045.00
2023-06-29T14:02:43.302Z,100053.00
2023-06-29T14:05:12.253Z,100040.00
2023-06-29T14:07:41.050Z,100054.00
2023-06-29T14:10:10.617Z,100051.00
2023-06-29T14:12:39.358Z,100057.00
2023-06-29T14:15:09.916Z,100053.00
2023-06-29T14:17:40.509Z,100056.00
2023-06-29T14:20:10.975Z,100077.00
2023-06-29T14:22:39.722Z,100073.00
2023-06-29T14:25:10.394Z,100080.00
2023-06-29T14:27:39.413Z,100063.00
2023-06-29T14:30:12.047Z,100096.00
2023-06-29T14:32:42.370Z,100096.00
2023-06-29T14:35:11.559Z,100097.00
2023-06-29T14:38:13.771Z,100096.00
2023-06-29T14:40:48.301Z,100112.00
2023-06-29T14:43:19.973Z,100098.00
2023-06-29T14:45:55.206Z,100096.00
2023-06-29T14:48:27.067Z,100112.00
2023-06-29T14:50:57.953Z,100106.00
2023-06-29T14:53:26.871Z,100109.00
2023-06-29T14:56:08.857Z,100105.00
2023-06-29T14:58:38.455Z,100107.00
2023-06-29T15:01:09.507Z,100108.00
2023-06-29T15:03:42.766Z,100111.00
2023-06-29T15:06:11.948Z,100117.00
2023-06-29T15:08:40.782Z,100109.00
2023-06-29T15:11:12.640Z,100107.00
2023-06-29T15:13:44.907Z,100113.00
2023-06-29T15:16:17.108Z,100114.00
2023-06-29T15:18:58.884Z,100106.00
2023-06-29T15:21:34.251Z,100102.00
2023-06-29T15:24:03.100Z,100105.00
2023-06-29T15:26:33.792Z,100116.00
2023-06-29T15:29:05.671Z,100113.00
2023-06-29T15:31:38.786Z,100120.00
2023-06-29T15:34:14.925Z,100127.00
2023-06-29T15:36:53.819Z,100116.00
2023-06-29T15:39:23.749Z,100130.00
2023-06-29T15:41:59.457Z,100127.00
2023-06-29T15:44:34.577Z,100130.00
2023-06-29T15:47:07.354Z,100124.00
2023-06-29T15:49:39.825Z,100122.00
2023-06-29T15:52:10.149Z,100135.00
2023-06-29T15:54:41.180Z,100142.00
2023-06-29T15:57:10.313Z,100141.00
2023-06-29T15:59:39.087Z,100146.00
2023-06-29T16:02:10.917Z,100143.00
2023-06-29T16:04:41.082Z,100140.00
2023-06-29T16:07:10.402Z,100144.00
2023-06-29T16:09:42.910Z,100141.00
2023-06-29T16:12:15.584Z,100141.00
2023-06-29T16:14:44.323Z,100145.00
2023-06-29T16:17:13.218Z,100133.00
2023-06-29T16:19:43.379Z,100124.00
2023-06-29T16:22:12.836Z,100128.00
2023-06-29T16:24:41.576Z,100130.00
2023-06-29T16:27:10.304Z,100135.00
2023-06-29T16:29:39.064Z,100130.00
2023-06-29T16:32:08.887Z,100131.00
2023-06-29T16:34:37.681Z,100117.00
2023-06-29T16:37:10.221Z,100111.00
2023-06-29T16:39:39.304Z,100115.00
2023-06-29T16:42:12.338Z,100116.00
2023-06-29T16:44:41.117Z,100114.00
2023-06-29T16:47:09.928Z,100119.00
2023-06-29T16:49:41.304Z,100114.00
2023-06-29T16:52:11.752Z,100123.00
2023-06-29T16:54:44.193Z,100113.00
2023-06-29T16:57:13.226Z,100108.00
2023-06-29T16:59:43.756Z,100106.00
2023-06-29T17:02:15.815Z,100102.00
2023-06-29T17:04:44.861Z,100089.00
2023-06-29T17:07:15.050Z,100080.00
2023-06-29T17:09:43.937Z,100089.00
2023-06-29T17:12:13.186Z,100083.00
2023-06-29T17:14:42.662Z,100091.00
2023-06-29T17:17:11.952Z,100095.00
2023-06-29T17:19:40.959Z,100098.00
2023-06-29T17:22:11.408Z,100093.00
2023-06-29T17:24:41.666Z,100087.00
2023-06-29T17:27:11.259Z,100079.00
2023-06-29T17:29:40.466Z,100081.00
2023-06-29T17:32:10.649Z,100078.00
2023-06-29T17:34:39.507Z,100083.00
2023-06-29T17:37:08.961Z,100077.00
2023-06-29T17:39:37.921Z,100073.00
2023-06-29T17:42:21.021Z,100069.00
2023-06-29T17:44:50.202Z,100073.00
2023-06-29T17:47:19.059Z,100070.00
2023-06-29T17:49:47.880Z,100066.00
2023-06-29T17:52:16.679Z,100070.00
2023-06-29T17:54:45.508Z,100077.00
2023-06-29T17:57:15.803Z,100062.00
2023-06-29T17:59:44.494Z,100065.00
2023-06-29T18:02:13.329Z,100063.00
2023-06-29T18:04:42.263Z,100049.00
2023-06-29T18:07:12.464Z,100042.00
2023-06-29T18:09:41.350Z,100043.00
2023-06-29T18:12:11.270Z,100039.00
2023-06-29T18:14:41.374Z,100041.00
2023-06-29T18:17:10.156Z,100040.00
2023-06-29T18:19:39.003Z,100040.00
2023-06-29T18:22:09.341Z,100033.00
2023-06-29T18:24:38.233Z,100040.00
2023-06-29T18:27:08.119Z,100027.00
2023-06-29T18:29:38.825Z,100026.00
2023-06-29T18:32:10.970Z,100029.00
2023-06-29T18:34:39.916Z,100032.00
2023-06-29T18:37:08.748Z,100038.00
2023-06-29T18:39:37.437Z,100035.00
2023-06-29T18:42:07.169Z,100034.00
2023-06-29T18:44:36.119Z,100033.00
2023-06-29T18:47:13.537Z,100037.00
2023-06-29T18:49:52.334Z,100038.00
2023-06-29T18:52:24.086Z,100040.00
2023-06-29T18:54:53.335Z,100032.00
2023-06-29T18:57:22.150Z,100033.00
2023-06-29T18:59:51.069Z,100028.00
2023-06-29T19:02:21.328Z,100033.00
2023-06-29T19:04:50.145Z,100038.00
2023-06-29T19:07:18.888Z,100035.00
2023-06-29T19:09:47.882Z,100044.00
2023-06-29T19:12:16.813Z,100039.00
2023-06-29T19:14:46.864Z,100044.00
2023-06-29T19:17:15.770Z,100036.00
2023-06-29T19:19:46.186Z,100050.00
2023-06-29T19:22:15.240Z,100050.00
2023-06-29T19:24:44.209Z,100056.00
2023-06-29T19:27:14.055Z,100057.00
2023-06-29T19:29:42.833Z,100063.00
2023-06-29T19:32:15.293Z,100062.00
2023-06-29T19:34:45.558Z,100069.00
2023-06-29T19:37:16.089Z,100066.00
2023-06-29T19:39:44.869Z,100062.00
2023-06-29T19:42:13.586Z,100065.00
2023-06-29T19:44:42.330Z,100065.00
2023-06-29T19:47:11.142Z,100065.00
2023-06-29T19:49:40.189Z,100060.00
2023-06-29T19:52:10.990Z,100061.00
2023-06-29T19:54:41.234Z,100050.00
2023-06-29T19:57:11.359Z,100047.00
2023-06-29T19:59:42.391Z,100058.00
2023-06-29T20:02:11.177Z,100050.00
2023-06-29T20:04:39.951Z,100051.00
2023-06-29T20:07:10.305Z,100054.00
2023-06-29T20:09:39.152Z,100061.00
2023-06-29T20:12:09.144Z,100059.00
2023-06-29T20:14:37.990Z,100060.00
2023-06-29T20:17:07.036Z,100055.00
2023-06-29T20:19:35.986Z,100058.00
2023-06-29T20:22:06.639Z,100059.00
2023-06-29T20:24:39.226Z,100051.00
2023-06-29T20:27:09.030Z,100053.00
2023-06-29T20:29:37.818Z,100055.00
2023-06-29T20:32:07.803Z,100052.00
2023-06-29T20:34:36.763Z,100048.00
2023-06-29T20:37:06.188Z,100048.00
2023-06-29T20:39:36.409Z,100053.00
2023-06-29T20:42:05.743Z,100050.00
2023-06-29T20:44:34.722Z,100052.00
2023-06-29T20:47:04.310Z,100052.00
2023-06-29T20:49:35.913Z,100058.00
2023-06-29T20:52:05.076Z,100057.00
2023-06-29T20:54:33.854Z,100056.00
2023-06-29T20:57:04.309Z,100062.00
2023-06-29T20:59:34.833Z,100058.00
2023-06-29T21:02:04.907Z,100062.00
2023-06-29T21:04:34.220Z,100056.00
2023-06-29T21:07:03.137Z,100055.00
2023-06-29T21:09:31.980Z,100050.00
2023-06-29T21:12:01.017Z,100051.00
2023-06-29T21:14:31.852Z,100051.00
2023-06-29T21:17:01.000Z,100050.00
2023-06-29T21:19:30.583Z,100045.00
2023-06-29T21:22:00.266Z,100045.00
2023-06-29T21:24:29.963Z,100044.00
2023-06-29T21:27:03.929Z,100050.00
2023-06-29T21:29:42.271Z,100052.00
2023-06-29T21:32:14.175Z,100050.00
2023-06-29T21:34:43.849Z,100043.00
2023-06-29T21:37:14.206Z,100050.00
2023-06-29T21:39:43.802Z,100047.00
2023-06-29T21:42:12.672Z,100045.00
2023-06-29T21:44:44.121Z,100051.00
2023-06-29T21:47:13.337Z,100044.00
2023-06-29T21:49:43.088Z,100047.00
2023-06-29T21:52:14.162Z,100049.00
2023-06-29T21:54:43.004Z,100050.00
2023-06-29T21:57:11.905Z,100041.00
2023-06-29T21:59:42.185Z,100050.00
2023-06-29T22:02:11.145Z,100058.00
2023-06-29T22:04:39.967Z,100057.00
2023-06-29T22:07:16.626Z,100060.00
2023-06-29T22:09:46.302Z,100060.00
2023-06-29T22:12:15.199Z,100057.00
2023-06-29T22:14:50.066Z,100070.00
2023-06-29T22:17:18.918Z,100073.00
2023-06-29T22:20:18.452Z,100067.00
2023-06-29T22:22:47.807Z,100062.00
2023-06-29T22:25:18.525Z,100067.00
2023-06-29T22:27:49.458Z,100068.00
2023-06-29T22:30:19.788Z,100065.00
2023-06-29T22:32:52.916Z,100062.00
2023-06-29T22:35:22.509Z,100059.00
2023-06-29T22:37:51.218Z,100049.00
2023-06-29T22:40:22.404Z,100050.00
2023-06-29T22:42:51.199Z,100047.00
2023-06-29T22:45:23.613Z,100052.00
2023-06-29T22:47:52.524Z,100041.00
2023-06-29T22:50:21.330Z,100042.00
2023-06-29T22:52:50.159Z,100046.00
2023-06-29T22:55:21.592Z,100044.00
2023-06-29T22:57:52.575Z,100046.00
2023-06-29T23:00:23.346Z,100049.00
2023-06-29T23:02:53.545Z,100047.00
2023-06-29T23:05:22.789Z,100051.00
2023-06-29T23:07:51.728Z,100051.00
2023-06-29T23:10:28.711Z,100046.00
2023-06-29T23:12:57.604Z,100043.00
2023-06-29T23:15:28.119Z,100042.00
2023-06-29T23:17:57.082Z,100037.00
2023-06-29T23:20:29.092Z,100033.00
2023-06-29T23:22:58.516Z,100033.00
2023-06-29T23:25:27.848Z,100039.00
2023-06-29T23:27:56.715Z,100043.00
2023-06-29T23:30:26.165Z,100044.00
2023-06-29T23:32:56.678Z,100050.00
2023-06-29T23:35:26.601Z,100047.00
2023-06-29T23:37:55.511Z,100049.00
2023-06-29T23:40:26.928Z,100042.00
2023-06-29T23:42:56.381Z,100044.00
2023-06-29T23:45:25.649Z,100051.00
2023-06-29T23:47:55.968Z,100050.00
2023-06-29T23:50:25.376Z,100053.00
2023-06-29T23:52:54.443Z,100057.00
2023-06-29T23:55:24.099Z,100047.00
2023-06-29T23:57:52.914Z,100055.00
